sensor_id;sensor_type;location;lat;lon;timestamp;P1;durP1;ratioP1;P2;durP2;ratioP2
42906;SDS011;28552;51.146;6.576;2022-11-30T00:02:13;43.08;;;14.35;;
42906;SDS011;28552;51.146;6.576;2022-11-30T00:05:13;47.50;;;14.68;;
42906;SDS011;28552;51.146;6.576;2022-11-30T00:08:14;42.70;;;14.95;;
42906;SDS011;28552;51.146;6.576;2022-11-30T00:11:15;53.88;;;16.25;;
42906;SDS011;28552;51.146;6.576;2022-11-30T00:14:17;61.88;;;17.17;;
42906;SDS011;28552;51.146;6.576;2022-11-30T00:17:17;58.80;;;18.75;;
42906;SDS011;28552;51.146;6.576;2022-11-30T00:20:18;57.22;;;16.45;;
42906;SDS011;28552;51.146;6.576;2022-11-30T00:23:18;74.90;;;20.27;;
42906;SDS011;28552;51.146;6.576;2022-11-30T00:26:19;65.78;;;18.85;;
42906;SDS011;28552;51.146;6.576;2022-11-30T00:29:21;51.00;;;16.02;;
42906;SDS011;28552;51.146;6.576;2022-11-30T00:32:22;52.83;;;17.52;;
42906;SDS011;28552;51.146;6.576;2022-11-30T00:35:23;65.88;;;18.25;;
42906;SDS011;28552;51.146;6.576;2022-11-30T00:38:23;48.40;;;16.60;;
42906;SDS011;28552;51.146;6.576;2022-11-30T00:41:25;58.58;;;17.63;;
42906;SDS011;28552;51.146;6.576;2022-11-30T00:44:25;45.70;;;17.35;;
42906;SDS011;28552;51.146;6.576;2022-11-30T00:47:26;47.60;;;16.25;;
42906;SDS011;28552;51.146;6.576;2022-11-30T00:50:26;66.45;;;17.35;;
42906;SDS011;28552;51.146;6.576;2022-11-30T00:53:27;49.58;;;15.73;;
42906;SDS011;28552;51.146;6.576;2022-11-30T00:56:27;53.22;;;16.77;;
42906;SDS011;28552;51.146;6.576;2022-11-30T00:59:28;58.03;;;17.52;;
42906;SDS011;28552;51.146;6.576;2022-11-30T01:02:28;46.97;;;17.58;;
42906;SDS011;28552;51.146;6.576;2022-11-30T01:05:29;48.13;;;14.48;;
42906;SDS011;28552;51.146;6.576;2022-11-30T01:08:31;41.92;;;14.38;;
42906;SDS011;28552;51.146;6.576;2022-11-30T01:11:31;47.60;;;14.30;;
42906;SDS011;28552;51.146;6.576;2022-11-30T01:14:32;46.50;;;13.52;;
42906;SDS011;28552;51.146;6.576;2022-11-30T01:17:33;46.30;;;14.52;;
42906;SDS011;28552;51.146;6.576;2022-11-30T01:20:34;36.78;;;13.05;;
42906;SDS011;28552;51.146;6.576;2022-11-30T01:23:34;44.08;;;13.68;;
42906;SDS011;28552;51.146;6.576;2022-11-30T01:26:35;49.20;;;13.27;;
42906;SDS011;28552;51.146;6.576;2022-11-30T01:29:36;41.75;;;12.35;;
42906;SDS011;28552;51.146;6.576;2022-11-30T01:32:36;33.90;;;10.90;;
42906;SDS011;28552;51.146;6.576;2022-11-30T01:35:37;43.65;;;13.77;;
42906;SDS011;28552;51.146;6.576;2022-11-30T01:38:38;40.35;;;13.32;;
42906;SDS011;28552;51.146;6.576;2022-11-30T01:41:40;44.85;;;12.45;;
42906;SDS011;28552;51.146;6.576;2022-11-30T01:44:50;44.40;;;13.77;;
42906;SDS011;28552;51.146;6.576;2022-11-30T01:47:54;43.38;;;13.77;;
42906;SDS011;28552;51.146;6.576;2022-11-30T01:50:56;38.45;;;12.77;;
42906;SDS011;28552;51.146;6.576;2022-11-30T01:53:57;47.88;;;14.57;;
42906;SDS011;28552;51.146;6.576;2022-11-30T01:56:59;37.70;;;12.23;;
42906;SDS011;28552;51.146;6.576;2022-11-30T02:00:08;42.27;;;12.63;;
42906;SDS011;28552;51.146;6.576;2022-11-30T02:03:12;48.63;;;13.68;;
42906;SDS011;28552;51.146;6.576;2022-11-30T02:06:19;39.08;;;13.35;;
42906;SDS011;28552;51.146;6.576;2022-11-30T02:09:21;38.00;;;12.18;;
42906;SDS011;28552;51.146;6.576;2022-11-30T02:12:29;41.05;;;12.57;;
42906;SDS011;28552;51.146;6.576;2022-11-30T02:15:35;32.42;;;12.68;;
42906;SDS011;28552;51.146;6.576;2022-11-30T02:25:35;38.60;;;12.48;;
42906;SDS011;28552;51.146;6.576;2022-11-30T02:28:52;50.25;;;13.55;;
42906;SDS011;28552;51.146;6.576;2022-11-30T02:35:11;42.65;;;12.40;;
42906;SDS011;28552;51.146;6.576;2022-11-30T02:38:18;35.92;;;11.82;;
42906;SDS011;28552;51.146;6.576;2022-11-30T02:41:20;32.80;;;11.02;;
42906;SDS011;28552;51.146;6.576;2022-11-30T02:44:21;43.83;;;10.23;;
42906;SDS011;28552;51.146;6.576;2022-11-30T02:47:26;41.47;;;12.35;;
42906;SDS011;28552;51.146;6.576;2022-11-30T02:50:38;35.08;;;12.15;;
42906;SDS011;28552;51.146;6.576;2022-11-30T02:53:45;40.55;;;11.90;;
42906;SDS011;28552;51.146;6.576;2022-11-30T02:56:46;42.33;;;11.18;;
42906;SDS011;28552;51.146;6.576;2022-11-30T02:59:47;40.75;;;11.98;;
42906;SDS011;28552;51.146;6.576;2022-11-30T03:02:47;25.58;;;10.00;;
42906;SDS011;28552;51.146;6.576;2022-11-30T03:05:48;43.40;;;13.13;;
42906;SDS011;28552;51.146;6.576;2022-11-30T03:08:49;40.50;;;12.02;;
42906;SDS011;28552;51.146;6.576;2022-11-30T03:11:49;34.17;;;11.35;;
42906;SDS011;28552;51.146;6.576;2022-11-30T03:14:50;43.38;;;13.05;;
42906;SDS011;28552;51.146;6.576;2022-11-30T03:17:51;36.88;;;10.80;;
42906;SDS011;28552;51.146;6.576;2022-11-30T03:20:52;37.15;;;11.65;;
42906;SDS011;28552;51.146;6.576;2022-11-30T03:23:52;32.63;;;9.65;;
42906;SDS011;28552;51.146;6.576;2022-11-30T03:26:53;33.35;;;12.05;;
42906;SDS011;28552;51.146;6.576;2022-11-30T03:29:53;32.33;;;11.60;;
42906;SDS011;28552;51.146;6.576;2022-11-30T03:32:54;34.70;;;11.73;;
42906;SDS011;28552;51.146;6.576;2022-11-30T03:35:58;43.30;;;10.93;;
42906;SDS011;28552;51.146;6.576;2022-11-30T03:39:00;32.90;;;11.68;;
42906;SDS011;28552;51.146;6.576;2022-11-30T03:42:01;31.90;;;11.50;;
42906;SDS011;28552;51.146;6.576;2022-11-30T03:45:02;27.55;;;8.38;;
42906;SDS011;28552;51.146;6.576;2022-11-30T03:48:03;28.25;;;10.73;;
42906;SDS011;28552;51.146;6.576;2022-11-30T03:51:04;32.53;;;9.25;;
42906;SDS011;28552;51.146;6.576;2022-11-30T03:54:04;26.45;;;8.75;;
42906;SDS011;28552;51.146;6.576;2022-11-30T03:57:05;22.85;;;8.32;;
42906;SDS011;28552;51.146;6.576;2022-11-30T04:00:05;28.80;;;8.77;;
42906;SDS011;28552;51.146;6.576;2022-11-30T04:03:06;28.63;;;9.18;;
42906;SDS011;28552;51.146;6.576;2022-11-30T04:06:07;27.25;;;8.95;;
42906;SDS011;28552;51.146;6.576;2022-11-30T04:09:09;29.67;;;8.27;;
42906;SDS011;28552;51.146;6.576;2022-11-30T04:12:10;27.90;;;8.95;;
42906;SDS011;28552;51.146;6.576;2022-11-30T04:15:10;28.02;;;9.98;;
42906;SDS011;28552;51.146;6.576;2022-11-30T04:18:11;30.42;;;10.77;;
42906;SDS011;28552;51.146;6.576;2022-11-30T04:21:11;27.83;;;8.10;;
42906;SDS011;28552;51.146;6.576;2022-11-30T04:24:12;22.67;;;8.80;;
42906;SDS011;28552;51.146;6.576;2022-11-30T04:27:12;33.55;;;10.25;;
42906;SDS011;28552;51.146;6.576;2022-11-30T04:30:13;24.52;;;8.68;;
42906;SDS011;28552;51.146;6.576;2022-11-30T04:33:14;33.63;;;10.60;;
42906;SDS011;28552;51.146;6.576;2022-11-30T04:36:17;34.55;;;11.38;;
42906;SDS011;28552;51.146;6.576;2022-11-30T04:39:18;26.63;;;11.35;;
42906;SDS011;28552;51.146;6.576;2022-11-30T04:42:19;32.67;;;10.90;;
42906;SDS011;28552;51.146;6.576;2022-11-30T04:45:19;27.77;;;11.15;;
42906;SDS011;28552;51.146;6.576;2022-11-30T04:48:20;25.00;;;8.93;;
42906;SDS011;28552;51.146;6.576;2022-11-30T04:51:20;25.92;;;9.05;;
42906;SDS011;28552;51.146;6.576;2022-11-30T04:54:21;30.33;;;11.02;;
42906;SDS011;28552;51.146;6.576;2022-11-30T04:57:21;29.95;;;11.18;;
42906;SDS011;28552;51.146;6.576;2022-11-30T05:00:23;26.35;;;10.10;;
42906;SDS011;28552;51.146;6.576;2022-11-30T05:03:24;26.50;;;9.35;;
42906;SDS011;28552;51.146;6.576;2022-11-30T05:06:25;36.53;;;11.18;;
42906;SDS011;28552;51.146;6.576;2022-11-30T05:09:25;28.33;;;9.05;;
42906;SDS011;28552;51.146;6.576;2022-11-30T05:12:26;28.77;;;10.73;;
42906;SDS011;28552;51.146;6.576;2022-11-30T05:15:26;27.65;;;9.43;;
42906;SDS011;28552;51.146;6.576;2022-11-30T05:18:27;28.55;;;9.77;;
42906;SDS011;28552;51.146;6.576;2022-11-30T05:21:28;32.33;;;10.35;;
42906;SDS011;28552;51.146;6.576;2022-11-30T05:24:30;24.23;;;9.00;;
42906;SDS011;28552;51.146;6.576;2022-11-30T05:27:30;24.13;;;9.55;;
42906;SDS011;28552;51.146;6.576;2022-11-30T05:30:31;27.48;;;9.80;;
42906;SDS011;28552;51.146;6.576;2022-11-30T05:33:32;25.02;;;9.25;;
42906;SDS011;28552;51.146;6.576;2022-11-30T05:36:32;28.15;;;9.07;;
42906;SDS011;28552;51.146;6.576;2022-11-30T05:39:33;25.92;;;9.75;;
42906;SDS011;28552;51.146;6.576;2022-11-30T05:42:33;24.58;;;7.63;;
42906;SDS011;28552;51.146;6.576;2022-11-30T05:45:34;29.63;;;8.82;;
42906;SDS011;28552;51.146;6.576;2022-11-30T05:48:35;26.92;;;10.00;;
42906;SDS011;28552;51.146;6.576;2022-11-30T05:51:37;24.35;;;8.93;;
42906;SDS011;28552;51.146;6.576;2022-11-30T05:54:39;26.88;;;8.75;;
42906;SDS011;28552;51.146;6.576;2022-11-30T05:57:39;19.58;;;7.88;;
42906;SDS011;28552;51.146;6.576;2022-11-30T06:00:40;21.75;;;8.77;;
42906;SDS011;28552;51.146;6.576;2022-11-30T06:03:40;29.35;;;10.10;;
42906;SDS011;28552;51.146;6.576;2022-11-30T06:06:41;24.85;;;8.70;;
42906;SDS011;28552;51.146;6.576;2022-11-30T06:09:41;28.27;;;9.35;;
42906;SDS011;28552;51.146;6.576;2022-11-30T06:12:42;26.60;;;8.85;;
42906;SDS011;28552;51.146;6.576;2022-11-30T06:15:42;25.13;;;8.43;;
42906;SDS011;28552;51.146;6.576;2022-11-30T06:18:43;26.08;;;9.05;;
42906;SDS011;28552;51.146;6.576;2022-11-30T06:21:43;26.50;;;8.90;;
42906;SDS011;28552;51.146;6.576;2022-11-30T06:24:44;28.05;;;10.82;;
42906;SDS011;28552;51.146;6.576;2022-11-30T06:27:44;33.97;;;10.95;;
42906;SDS011;28552;51.146;6.576;2022-11-30T06:30:45;25.58;;;8.57;;
42906;SDS011;28552;51.146;6.576;2022-11-30T06:33:46;25.63;;;10.32;;
42906;SDS011;28552;51.146;6.576;2022-11-30T06:36:46;26.88;;;10.35;;
42906;SDS011;28552;51.146;6.576;2022-11-30T06:39:46;34.05;;;11.32;;
42906;SDS011;28552;51.146;6.576;2022-11-30T06:42:47;23.17;;;8.93;;
42906;SDS011;28552;51.146;6.576;2022-11-30T06:45:48;25.25;;;10.00;;
42906;SDS011;28552;51.146;6.576;2022-11-30T06:48:48;29.05;;;10.60;;
42906;SDS011;28552;51.146;6.576;2022-11-30T06:51:49;28.65;;;8.98;;
42906;SDS011;28552;51.146;6.576;2022-11-30T06:54:50;29.48;;;10.55;;
42906;SDS011;28552;51.146;6.576;2022-11-30T06:57:51;24.00;;;8.45;;
42906;SDS011;28552;51.146;6.576;2022-11-30T07:00:51;26.02;;;10.13;;
42906;SDS011;28552;51.146;6.576;2022-11-30T07:03:52;23.35;;;9.38;;
42906;SDS011;28552;51.146;6.576;2022-11-30T07:06:52;22.00;;;8.38;;
42906;SDS011;28552;51.146;6.576;2022-11-30T07:09:53;25.95;;;10.25;;
42906;SDS011;28552;51.146;6.576;2022-11-30T07:12:53;30.90;;;11.48;;
42906;SDS011;28552;51.146;6.576;2022-11-30T07:15:54;21.55;;;8.52;;
42906;SDS011;28552;51.146;6.576;2022-11-30T07:18:56;22.15;;;8.93;;
42906;SDS011;28552;51.146;6.576;2022-11-30T07:21:56;21.85;;;9.60;;
42906;SDS011;28552;51.146;6.576;2022-11-30T07:24:56;26.08;;;9.60;;
42906;SDS011;28552;51.146;6.576;2022-11-30T07:28:12;25.77;;;7.28;;
42906;SDS011;28552;51.146;6.576;2022-11-30T07:31:14;23.02;;;8.60;;
42906;SDS011;28552;51.146;6.576;2022-11-30T07:34:19;25.52;;;9.10;;
42906;SDS011;28552;51.146;6.576;2022-11-30T07:37:20;28.88;;;10.00;;
42906;SDS011;28552;51.146;6.576;2022-11-30T07:40:20;24.95;;;8.32;;
42906;SDS011;28552;51.146;6.576;2022-11-30T07:43:21;23.40;;;8.30;;
42906;SDS011;28552;51.146;6.576;2022-11-30T07:46:21;22.33;;;7.28;;
42906;SDS011;28552;51.146;6.576;2022-11-30T07:49:22;25.02;;;7.32;;
42906;SDS011;28552;51.146;6.576;2022-11-30T07:52:22;23.88;;;8.90;;
42906;SDS011;28552;51.146;6.576;2022-11-30T07:55:23;27.55;;;8.23;;
42906;SDS011;28552;51.146;6.576;2022-11-30T07:58:24;29.42;;;10.63;;
42906;SDS011;28552;51.146;6.576;2022-11-30T08:01:25;17.60;;;7.07;;
42906;SDS011;28552;51.146;6.576;2022-11-30T08:04:27;26.95;;;10.00;;
42906;SDS011;28552;51.146;6.576;2022-11-30T08:07:28;22.95;;;9.40;;
42906;SDS011;28552;51.146;6.576;2022-11-30T08:10:29;26.17;;;11.05;;
42906;SDS011;28552;51.146;6.576;2022-11-30T08:13:30;27.17;;;10.68;;
42906;SDS011;28552;51.146;6.576;2022-11-30T08:16:33;22.70;;;10.77;;
42906;SDS011;28552;51.146;6.576;2022-11-30T08:19:36;22.20;;;8.65;;
42906;SDS011;28552;51.146;6.576;2022-11-30T08:22:37;25.23;;;9.65;;
42906;SDS011;28552;51.146;6.576;2022-11-30T08:25:37;20.92;;;9.13;;
42906;SDS011;28552;51.146;6.576;2022-11-30T08:28:38;24.77;;;10.00;;
42906;SDS011;28552;51.146;6.576;2022-11-30T08:31:39;19.92;;;9.32;;
42906;SDS011;28552;51.146;6.576;2022-11-30T08:34:39;32.63;;;10.13;;
42906;SDS011;28552;51.146;6.576;2022-11-30T08:37:40;28.08;;;10.45;;
42906;SDS011;28552;51.146;6.576;2022-11-30T08:40:40;27.60;;;10.32;;
42906;SDS011;28552;51.146;6.576;2022-11-30T08:43:41;26.73;;;10.85;;
42906;SDS011;28552;51.146;6.576;2022-11-30T08:46:42;24.05;;;9.27;;
42906;SDS011;28552;51.146;6.576;2022-11-30T08:49:42;29.55;;;11.38;;
42906;SDS011;28552;51.146;6.576;2022-11-30T08:52:43;34.40;;;11.77;;
42906;SDS011;28552;51.146;6.576;2022-11-30T08:55:43;28.38;;;10.68;;
42906;SDS011;28552;51.146;6.576;2022-11-30T08:58:54;31.55;;;11.10;;
42906;SDS011;28552;51.146;6.576;2022-11-30T09:01:55;29.90;;;11.07;;
42906;SDS011;28552;51.146;6.576;2022-11-30T09:04:55;30.48;;;11.63;;
42906;SDS011;28552;51.146;6.576;2022-11-30T09:07:56;29.58;;;10.18;;
42906;SDS011;28552;51.146;6.576;2022-11-30T09:10:56;23.65;;;8.68;;
42906;SDS011;28552;51.146;6.576;2022-11-30T09:13:58;31.33;;;12.35;;
42906;SDS011;28552;51.146;6.576;2022-11-30T09:17:00;28.60;;;10.82;;
42906;SDS011;28552;51.146;6.576;2022-11-30T09:20:01;24.70;;;10.32;;
42906;SDS011;28552;51.146;6.576;2022-11-30T09:23:02;26.10;;;10.65;;
42906;SDS011;28552;51.146;6.576;2022-11-30T09:26:03;24.15;;;10.00;;
42906;SDS011;28552;51.146;6.576;2022-11-30T09:29:08;25.42;;;9.55;;
42906;SDS011;28552;51.146;6.576;2022-11-30T09:32:08;29.88;;;9.70;;
42906;SDS011;28552;51.146;6.576;2022-11-30T09:35:09;27.25;;;12.07;;
42906;SDS011;28552;51.146;6.576;2022-11-30T09:38:09;22.83;;;9.95;;
42906;SDS011;28552;51.146;6.576;2022-11-30T09:44:38;26.40;;;12.18;;
42906;SDS011;28552;51.146;6.576;2022-11-30T09:51:02;24.50;;;7.93;;
42906;SDS011;28552;51.146;6.576;2022-11-30T09:54:11;26.00;;;9.50;;
42906;SDS011;28552;51.146;6.576;2022-11-30T10:00:29;22.27;;;10.15;;
42906;SDS011;28552;51.146;6.576;2022-11-30T10:03:30;24.50;;;10.20;;
42906;SDS011;28552;51.146;6.576;2022-11-30T10:06:33;23.90;;;9.98;;
42906;SDS011;28552;51.146;6.576;2022-11-30T10:09:59;24.98;;;10.25;;
42906;SDS011;28552;51.146;6.576;2022-11-30T10:16:30;27.88;;;8.98;;
42906;SDS011;28552;51.146;6.576;2022-11-30T10:26:27;22.67;;;8.50;;
42906;SDS011;28552;51.146;6.576;2022-11-30T10:29:33;29.05;;;9.77;;
42906;SDS011;28552;51.146;6.576;2022-11-30T10:32:36;28.80;;;10.70;;
42906;SDS011;28552;51.146;6.576;2022-11-30T10:35:41;21.92;;;9.90;;
42906;SDS011;28552;51.146;6.576;2022-11-30T10:38:44;24.88;;;9.88;;
42906;SDS011;28552;51.146;6.576;2022-11-30T10:41:52;28.08;;;9.07;;
42906;SDS011;28552;51.146;6.576;2022-11-30T10:44:59;27.15;;;11.02;;
42906;SDS011;28552;51.146;6.576;2022-11-30T10:48:06;28.58;;;10.20;;
42906;SDS011;28552;51.146;6.576;2022-11-30T10:51:14;28.15;;;10.43;;
42906;SDS011;28552;51.146;6.576;2022-11-30T10:54:16;24.67;;;9.95;;
42906;SDS011;28552;51.146;6.576;2022-11-30T10:57:20;27.83;;;9.60;;
42906;SDS011;28552;51.146;6.576;2022-11-30T11:00:24;25.90;;;10.35;;
42906;SDS011;28552;51.146;6.576;2022-11-30T11:03:25;25.17;;;9.27;;
42906;SDS011;28552;51.146;6.576;2022-11-30T11:06:25;26.83;;;9.48;;
42906;SDS011;28552;51.146;6.576;2022-11-30T11:09:35;27.70;;;10.55;;
42906;SDS011;28552;51.146;6.576;2022-11-30T11:12:38;24.15;;;10.52;;
42906;SDS011;28552;51.146;6.576;2022-11-30T11:15:38;26.55;;;9.70;;
42906;SDS011;28552;51.146;6.576;2022-11-30T11:18:50;27.38;;;10.75;;
42906;SDS011;28552;51.146;6.576;2022-11-30T11:21:53;25.48;;;10.45;;
42906;SDS011;28552;51.146;6.576;2022-11-30T11:25:05;26.30;;;10.40;;
42906;SDS011;28552;51.146;6.576;2022-11-30T11:28:12;21.00;;;9.38;;
42906;SDS011;28552;51.146;6.576;2022-11-30T11:31:17;30.98;;;10.48;;
42906;SDS011;28552;51.146;6.576;2022-11-30T11:34:23;32.35;;;11.85;;
42906;SDS011;28552;51.146;6.576;2022-11-30T11:37:26;27.25;;;10.82;;
42906;SDS011;28552;51.146;6.576;2022-11-30T11:40:30;25.02;;;9.68;;
42906;SDS011;28552;51.146;6.576;2022-11-30T11:43:32;25.45;;;10.25;;
42906;SDS011;28552;51.146;6.576;2022-11-30T11:50:17;22.40;;;8.68;;
42906;SDS011;28552;51.146;6.576;2022-11-30T11:53:23;26.55;;;10.23;;
42906;SDS011;28552;51.146;6.576;2022-11-30T11:56:38;29.83;;;9.90;;
42906;SDS011;28552;51.146;6.576;2022-11-30T12:02:57;25.13;;;10.27;;
42906;SDS011;28552;51.146;6.576;2022-11-30T12:06:14;25.05;;;9.20;;
42906;SDS011;28552;51.146;6.576;2022-11-30T12:09:20;27.48;;;9.95;;
42906;SDS011;28552;51.146;6.576;2022-11-30T12:12:24;27.92;;;11.60;;
42906;SDS011;28552;51.146;6.576;2022-11-30T12:15:30;29.23;;;11.40;;
42906;SDS011;28552;51.146;6.576;2022-11-30T12:18:45;29.92;;;11.38;;
42906;SDS011;28552;51.146;6.576;2022-11-30T12:25:22;26.92;;;11.00;;
42906;SDS011;28552;51.146;6.576;2022-11-30T12:28:38;30.17;;;12.55;;
42906;SDS011;28552;51.146;6.576;2022-11-30T12:35:11;28.27;;;9.50;;
42906;SDS011;28552;51.146;6.576;2022-11-30T12:41:48;22.42;;;9.95;;
42906;SDS011;28552;51.146;6.576;2022-11-30T12:48:01;25.45;;;9.25;;
42906;SDS011;28552;51.146;6.576;2022-11-30T12:54:27;27.27;;;11.23;;
42906;SDS011;28552;51.146;6.576;2022-11-30T12:57:41;23.98;;;9.95;;
42906;SDS011;28552;51.146;6.576;2022-11-30T13:04:18;27.63;;;9.45;;
42906;SDS011;28552;51.146;6.576;2022-11-30T13:07:29;28.58;;;11.90;;
42906;SDS011;28552;51.146;6.576;2022-11-30T13:10:48;24.75;;;10.73;;
42906;SDS011;28552;51.146;6.576;2022-11-30T13:13:55;29.45;;;9.63;;
42906;SDS011;28552;51.146;6.576;2022-11-30T13:17:02;21.23;;;9.27;;
42906;SDS011;28552;51.146;6.576;2022-11-30T13:23:45;29.50;;;10.50;;
42906;SDS011;28552;51.146;6.576;2022-11-30T13:26:56;29.13;;;11.43;;
42906;SDS011;28552;51.146;6.576;2022-11-30T13:33:36;24.48;;;9.05;;
42906;SDS011;28552;51.146;6.576;2022-11-30T13:36:44;32.45;;;10.93;;
42906;SDS011;28552;51.146;6.576;2022-11-30T13:39:52;33.42;;;12.90;;
42906;SDS011;28552;51.146;6.576;2022-11-30T13:42:54;35.20;;;11.55;;
42906;SDS011;28552;51.146;6.576;2022-11-30T13:49:22;34.03;;;11.23;;
42906;SDS011;28552;51.146;6.576;2022-11-30T13:55:58;30.08;;;11.50;;
42906;SDS011;28552;51.146;6.576;2022-11-30T14:05:35;27.40;;;10.65;;
42906;SDS011;28552;51.146;6.576;2022-11-30T14:08:38;29.65;;;10.00;;
42906;SDS011;28552;51.146;6.576;2022-11-30T14:11:40;38.22;;;12.57;;
42906;SDS011;28552;51.146;6.576;2022-11-30T14:14:44;29.08;;;10.57;;
42906;SDS011;28552;51.146;6.576;2022-11-30T14:17:46;30.67;;;10.68;;
42906;SDS011;28552;51.146;6.576;2022-11-30T14:20:49;29.70;;;11.13;;
42906;SDS011;28552;51.146;6.576;2022-11-30T14:23:59;26.25;;;9.43;;
42906;SDS011;28552;51.146;6.576;2022-11-30T14:27:03;26.42;;;9.20;;
42906;SDS011;28552;51.146;6.576;2022-11-30T14:30:05;27.45;;;10.70;;
42906;SDS011;28552;51.146;6.576;2022-11-30T14:33:10;25.33;;;9.25;;
42906;SDS011;28552;51.146;6.576;2022-11-30T14:36:14;24.08;;;9.45;;
42906;SDS011;28552;51.146;6.576;2022-11-30T14:39:26;28.33;;;11.18;;
42906;SDS011;28552;51.146;6.576;2022-11-30T14:42:35;27.42;;;10.32;;
42906;SDS011;28552;51.146;6.576;2022-11-30T14:45:35;22.77;;;9.98;;
42906;SDS011;28552;51.146;6.576;2022-11-30T14:48:36;28.38;;;11.20;;
42906;SDS011;28552;51.146;6.576;2022-11-30T14:51:37;30.75;;;10.65;;
42906;SDS011;28552;51.146;6.576;2022-11-30T15:01:17;26.70;;;9.77;;
42906;SDS011;28552;51.146;6.576;2022-11-30T15:04:19;23.98;;;10.57;;
42906;SDS011;28552;51.146;6.576;2022-11-30T15:07:20;24.13;;;9.80;;
42906;SDS011;28552;51.146;6.576;2022-11-30T15:10:23;23.75;;;9.88;;
42906;SDS011;28552;51.146;6.576;2022-11-30T15:13:28;19.75;;;8.77;;
42906;SDS011;28552;51.146;6.576;2022-11-30T15:16:29;22.42;;;9.30;;
42906;SDS011;28552;51.146;6.576;2022-11-30T15:19:30;28.45;;;11.15;;
42906;SDS011;28552;51.146;6.576;2022-11-30T15:22:33;23.83;;;9.48;;
42906;SDS011;28552;51.146;6.576;2022-11-30T15:25:36;24.98;;;9.02;;
42906;SDS011;28552;51.146;6.576;2022-11-30T15:28:40;29.40;;;10.40;;
42906;SDS011;28552;51.146;6.576;2022-11-30T15:31:44;28.50;;;10.02;;
42906;SDS011;28552;51.146;6.576;2022-11-30T15:34:48;23.85;;;8.15;;
42906;SDS011;28552;51.146;6.576;2022-11-30T15:37:53;20.05;;;8.15;;
42906;SDS011;28552;51.146;6.576;2022-11-30T15:41:02;22.05;;;8.57;;
42906;SDS011;28552;51.146;6.576;2022-11-30T15:44:15;22.08;;;8.35;;
42906;SDS011;28552;51.146;6.576;2022-11-30T15:47:25;22.35;;;8.70;;
42906;SDS011;28552;51.146;6.576;2022-11-30T15:53:28;22.80;;;8.05;;
42906;SDS011;28552;51.146;6.576;2022-11-30T15:56:31;17.25;;;7.05;;
42906;SDS011;28552;51.146;6.576;2022-11-30T15:59:32;23.45;;;10.15;;
42906;SDS011;28552;51.146;6.576;2022-11-30T16:02:34;20.00;;;7.55;;
42906;SDS011;28552;51.146;6.576;2022-11-30T16:05:36;26.42;;;9.43;;
42906;SDS011;28552;51.146;6.576;2022-11-30T16:08:44;22.02;;;8.40;;
42906;SDS011;28552;51.146;6.576;2022-11-30T16:11:46;21.80;;;7.63;;
42906;SDS011;28552;51.146;6.576;2022-11-30T16:14:50;17.33;;;7.40;;
42906;SDS011;28552;51.146;6.576;2022-11-30T16:17:52;18.75;;;7.45;;
42906;SDS011;28552;51.146;6.576;2022-11-30T16:20:58;22.13;;;7.82;;
42906;SDS011;28552;51.146;6.576;2022-11-30T16:24:00;27.85;;;7.55;;
42906;SDS011;28552;51.146;6.576;2022-11-30T16:27:01;20.73;;;7.18;;
42906;SDS011;28552;51.146;6.576;2022-11-30T16:30:17;18.23;;;7.18;;
42906;SDS011;28552;51.146;6.576;2022-11-30T16:33:21;20.90;;;7.82;;
42906;SDS011;28552;51.146;6.576;2022-11-30T16:36:23;19.85;;;7.80;;
42906;SDS011;28552;51.146;6.576;2022-11-30T16:39:23;20.65;;;7.32;;
42906;SDS011;28552;51.146;6.576;2022-11-30T16:42:24;19.48;;;7.78;;
42906;SDS011;28552;51.146;6.576;2022-11-30T16:45:25;17.05;;;7.00;;
42906;SDS011;28552;51.146;6.576;2022-11-30T16:48:33;19.67;;;7.38;;
42906;SDS011;28552;51.146;6.576;2022-11-30T16:51:34;24.48;;;8.95;;
42906;SDS011;28552;51.146;6.576;2022-11-30T16:54:35;25.00;;;9.00;;
42906;SDS011;28552;51.146;6.576;2022-11-30T16:57:35;18.40;;;7.15;;
42906;SDS011;28552;51.146;6.576;2022-11-30T17:00:36;21.27;;;9.75;;
42906;SDS011;28552;51.146;6.576;2022-11-30T17:03:39;22.27;;;7.65;;
42906;SDS011;28552;51.146;6.576;2022-11-30T17:06:39;20.73;;;8.55;;
42906;SDS011;28552;51.146;6.576;2022-11-30T17:09:40;20.15;;;8.02;;
42906;SDS011;28552;51.146;6.576;2022-11-30T17:12:40;22.17;;;8.68;;
42906;SDS011;28552;51.146;6.576;2022-11-30T17:15:41;21.52;;;9.13;;
42906;SDS011;28552;51.146;6.576;2022-11-30T17:18:41;22.75;;;8.90;;
42906;SDS011;28552;51.146;6.576;2022-11-30T17:21:42;22.05;;;9.50;;
42906;SDS011;28552;51.146;6.576;2022-11-30T17:24:43;21.58;;;8.60;;
42906;SDS011;28552;51.146;6.576;2022-11-30T17:27:44;21.20;;;7.60;;
42906;SDS011;28552;51.146;6.576;2022-11-30T17:30:45;22.73;;;8.32;;
42906;SDS011;28552;51.146;6.576;2022-11-30T17:33:45;21.08;;;8.52;;
42906;SDS011;28552;51.146;6.576;2022-11-30T17:36:46;18.10;;;7.90;;
42906;SDS011;28552;51.146;6.576;2022-11-30T17:39:49;21.45;;;7.85;;
42906;SDS011;28552;51.146;6.576;2022-11-30T17:42:50;20.17;;;8.60;;
42906;SDS011;28552;51.146;6.576;2022-11-30T17:45:51;19.65;;;7.85;;
42906;SDS011;28552;51.146;6.576;2022-11-30T17:48:51;23.05;;;9.27;;
42906;SDS011;28552;51.146;6.576;2022-11-30T17:51:52;24.42;;;9.27;;
42906;SDS011;28552;51.146;6.576;2022-11-30T17:54:52;21.98;;;8.65;;
42906;SDS011;28552;51.146;6.576;2022-11-30T17:57:53;20.85;;;8.50;;
42906;SDS011;28552;51.146;6.576;2022-11-30T18:00:53;27.70;;;9.25;;
42906;SDS011;28552;51.146;6.576;2022-11-30T18:03:54;21.52;;;8.13;;
42906;SDS011;28552;51.146;6.576;2022-11-30T18:06:55;21.02;;;8.55;;
42906;SDS011;28552;51.146;6.576;2022-11-30T18:09:56;20.88;;;8.65;;
42906;SDS011;28552;51.146;6.576;2022-11-30T18:12:57;23.02;;;8.23;;
42906;SDS011;28552;51.146;6.576;2022-11-30T18:19:16;20.30;;;7.90;;
42906;SDS011;28552;51.146;6.576;2022-11-30T18:22:17;25.63;;;9.80;;
42906;SDS011;28552;51.146;6.576;2022-11-30T18:25:17;28.75;;;9.88;;
42906;SDS011;28552;51.146;6.576;2022-11-30T18:28:18;21.85;;;8.82;;
42906;SDS011;28552;51.146;6.576;2022-11-30T18:31:18;23.13;;;9.23;;
42906;SDS011;28552;51.146;6.576;2022-11-30T18:34:19;25.42;;;10.18;;
42906;SDS011;28552;51.146;6.576;2022-11-30T18:37:19;24.13;;;9.90;;
42906;SDS011;28552;51.146;6.576;2022-11-30T18:40:20;22.95;;;8.93;;
42906;SDS011;28552;51.146;6.576;2022-11-30T18:43:20;24.65;;;9.68;;
42906;SDS011;28552;51.146;6.576;2022-11-30T18:46:21;25.23;;;8.90;;
42906;SDS011;28552;51.146;6.576;2022-11-30T18:49:22;25.63;;;9.82;;
42906;SDS011;28552;51.146;6.576;2022-11-30T18:52:22;22.13;;;9.18;;
42906;SDS011;28552;51.146;6.576;2022-11-30T18:55:23;20.65;;;8.57;;
42906;SDS011;28552;51.146;6.576;2022-11-30T18:58:24;25.42;;;9.48;;
42906;SDS011;28552;51.146;6.576;2022-11-30T19:01:25;28.67;;;9.98;;
42906;SDS011;28552;51.146;6.576;2022-11-30T19:04:26;23.25;;;8.95;;
42906;SDS011;28552;51.146;6.576;2022-11-30T19:07:27;26.13;;;9.88;;
42906;SDS011;28552;51.146;6.576;2022-11-30T19:10:28;25.15;;;9.65;;
42906;SDS011;28552;51.146;6.576;2022-11-30T19:13:33;23.10;;;9.27;;
42906;SDS011;28552;51.146;6.576;2022-11-30T19:16:34;29.67;;;8.95;;
42906;SDS011;28552;51.146;6.576;2022-11-30T19:19:35;27.50;;;10.68;;
42906;SDS011;28552;51.146;6.576;2022-11-30T19:22:35;19.08;;;8.15;;
42906;SDS011;28552;51.146;6.576;2022-11-30T19:25:36;23.90;;;9.32;;
42906;SDS011;28552;51.146;6.576;2022-11-30T19:28:37;23.67;;;9.50;;